Latest Weather Observations for Troughton Island

IDW60801

Issued at 8:04 pm WST Tuesday 21 February 2017 (issued every 30 minutes, with the page automatically refreshed every 10 minutes)

About weather observations | Map of weather stations | Latest weather observations for WA | Other Formats
Station Details ID: 001007 Name: TROUGHTON ISLAND Lat: -13.75 Lon: 126.15 Height: 6.0 m
Data from the previous 72 hours. | See also: Recent months at Troughton Island
Date/Time
WST
Temp
°C
App
Temp
°C
Dew
Point
°C
Rel
Hum
%
Delta-T
°C
Wind Press
QNH
hPa
Press
MSL
hPa
Rain since
9am
mm
Dir  Spd
km/h
Gust
km/h
Spd
kts
Gust
kts
21/08:00pm 28.7 32.8 24.5 78 2.9 WNW 11 13 6 7 1011.1 1011.0 0.0
21/07:30pm 28.8 32.4 24.4 77 3.1 WNW 13 15 7 8 1010.7 1010.6 0.0
21/07:00pm 28.9 32.4 24.2 76 3.3 WNW 13 15 7 8 1010.4 1010.3 0.0
21/06:30pm 29.1 32.2 23.5 72 3.9 WNW 13 17 7 9 1010.1 1010.0 0.0
21/06:00pm 29.5 32.4 23.9 72 3.9 WNW 15 17 8 9 1010.0 1009.9 0.0
21/05:30pm 30.2 33.4 24.4 71 4.0 WNW 15 17 8 9 1009.6 1009.5 0.0
21/05:00pm 30.8 33.4 24.0 67 4.7 WNW 17 19 9 10 1009.3 1009.2 0.0
21/04:30pm 30.9 33.2 24.1 67 4.7 W 19 22 10 12 1009.0 1008.9 0.0
21/04:00pm 31.6 34.6 25.2 69 4.5 WNW 19 22 10 12 1008.9 1008.8 0.0
21/03:30pm 31.0 34.0 24.6 68 4.5 WNW 17 20 9 11 1009.1 1009.0 0.0
21/03:00pm 31.2 34.9 25.1 70 4.3 WNW 15 17 8 9 1009.2 1009.1 0.0
21/02:30pm 31.7 35.3 24.3 65 5.2 WNW 13 17 7 9 1009.4 1009.3 0.0
21/02:00pm 31.3 35.3 24.4 66 4.8 W 11 13 6 7 1009.7 1009.6 0.0
21/01:30pm 31.0 35.1 24.6 68 4.5 W 11 13 6 7 1010.1 1010.0 0.0
21/01:00pm 31.5 35.8 24.9 68 4.6 W 11 13 6 7 1010.3 1010.2 0.0
21/12:30pm 31.1 35.0 24.2 66 4.8 W 11 15 6 8 1010.8 1010.7 0.0
21/12:00pm 31.3 36.3 25.4 71 4.2 W 9 13 5 7 1011.4 1011.3 0.0
21/11:30am 31.3 35.9 24.7 68 4.6 WSW 9 13 5 7 1011.9 1011.8 0.0
21/11:00am 31.2 36.1 25.3 71 4.2 WSW 9 13 5 7 1012.2 1012.1 0.0
21/10:30am 30.9 35.8 25.3 72 4.0 WSW 9 13 5 7 1012.3 1012.2 0.0
21/10:00am 30.5 34.9 24.4 70 4.3 W 9 11 5 6 1012.6 1012.5 0.0
21/09:30am 29.9 34.2 24.3 72 3.9 W 9 11 5 6 1012.9 1012.8 0.0
21/09:00am 29.5 34.1 24.1 72 3.7 WSW 7 9 4 5 1013.1 1013.0 0.0
21/08:30am 29.5 34.1 24.1 72 3.7 SW 7 11 4 6 1013.0 1012.9 0.0
21/08:00am 29.5 34.4 24.4 74 3.6 SSW 6 9 3 5 1012.8 1012.7 0.0
21/07:30am 29.0 33.9 24.6 77 3.1 S 7 9 4 5 1012.7 1012.6 0.0
21/07:00am 28.7 33.2 24.0 76 3.3 S 7 9 4 5 1012.2 1012.1 0.0
21/06:30am 28.0 32.1 24.0 79 2.8 S 9 11 5 6 1011.7 1011.6 0.0
21/06:00am 26.9 31.3 24.4 86 1.7 S 9 11 5 6 1011.4 1011.3 0.0
21/05:30am 26.8 30.8 23.7 83 2.1 SSW 9 13 5 7 1010.9 1010.8 0.0
21/05:00am 27.3 30.8 24.2 83 2.1 SSW 13 15 7 8 1010.6 1010.5 0.0
21/04:30am 26.4 30.5 23.9 86 1.7 S 9 11 5 6 1010.3 1010.2 0.0
21/04:00am 26.4 30.7 23.7 85 1.9 SSW 7 9 4 5 1009.9 1009.8 0.0
21/03:30am 26.3 30.6 23.6 85 1.8 S 7 7 4 4 1009.6 1009.5 0.0
21/03:00am 26.7 30.6 23.6 83 2.1 S 9 11 5 6 1009.3 1009.2 0.0
21/02:30am 27.2 31.2 23.7 81 2.4 SW 9 13 5 7 1009.3 1009.2 0.0
21/02:00am 27.3 30.9 23.7 81 2.5 SW 11 13 6 7 1009.4 1009.3 0.0
21/01:30am 26.8 31.6 24.1 85 1.9 S 6 7 3 4 1009.6 1009.5 0.0
21/01:00am 26.9 31.6 24.0 84 2.0 S 6 7 3 4 1009.9 1009.8 0.0
21/12:30am 27.1 31.8 24.0 83 2.1 S 6 7 3 4 1010.0 1009.9 0.0
21/12:00am 27.4 31.2 23.4 79 2.7 S 9 11 5 6 1010.2 1010.1 0.0
 
Date/Time
WST
Temp
°C
App
Temp
°C
Dew
Point
°C
Rel
Hum
%
Delta-T
°C
Wind Press
QNH
hPa
Press
MSL
hPa
Rain since
9am
mm
Dir  Spd
km/h
Gust
km/h
Spd
kts
Gust
kts
20/11:30pm 27.8 31.7 23.6 78 2.9 SSW 9 11 5 6 1010.5 1010.4 0.0
20/11:00pm 27.9 31.1 23.1 75 3.3 WSW 11 13 6 7 1010.6 1010.5 0.0
20/10:30pm 27.9 31.5 23.7 78 2.9 SW 11 15 6 8 1011.2 1011.1 0.0
20/10:00pm 28.1 31.4 23.9 78 2.9 WSW 13 15 7 8 1011.1 1011.0 0.0
20/09:30pm 28.0 31.1 23.6 77 3.0 SW 13 15 7 8 1011.3 1011.2 0.0
20/09:00pm 28.0 31.6 24.4 81 2.5 SW 13 17 7 9 1010.9 1010.8 0.0
20/08:30pm 28.3 31.3 24.7 81 2.5 SW 17 22 9 12 1010.6 1010.5 0.0
20/08:00pm 28.7 32.6 26.1 86 1.8 W 17 20 9 11 1010.3 1010.2 0.0
20/07:30pm 28.9 32.6 26.3 86 1.9 W 19 22 10 12 1010.0 1009.9 0.0
20/07:00pm 29.0 32.0 26.2 85 2.0 W 22 26 12 14 1010.0 1009.9 0.0
20/06:30pm 29.1 32.6 26.3 85 2.0 W 20 22 11 12 1009.4 1009.3 0.0
20/06:00pm 29.2 32.9 26.6 86 1.9 W 20 22 11 12 1008.9 1008.8 0.0
20/05:30pm 29.5 33.1 26.5 84 2.1 WNW 20 24 11 13 1008.6 1008.5 0.0
20/05:00pm 29.6 33.2 26.2 82 2.4 W 19 24 10 13 1008.3 1008.2 0.0
20/04:30pm 29.8 33.4 26.2 81 2.6 W 19 22 10 12 1008.0 1007.9 0.0
20/04:00pm 30.6 33.3 26.3 78 3.1 W 24 26 13 14 1007.4 1007.3 0.0
20/03:30pm 31.0 34.2 26.5 77 3.2 W 22 26 12 14 1007.3 1007.2 0.0
20/03:00pm 30.9 33.4 25.9 74 3.6 W 24 28 13 15 1007.3 1007.2 0.0
20/02:30pm 31.1 33.4 25.7 73 3.8 W 24 28 13 15 1007.5 1007.4 0.0
20/02:00pm 31.3 33.8 25.9 73 3.9 W 24 30 13 16 1007.3 1007.2 0.0
20/01:30pm 31.5 34.5 25.6 71 4.2 W 20 24 11 13 1007.8 1007.7 0.0
20/01:00pm 31.0 33.9 25.1 71 4.2 W 19 22 10 12 1008.0 1007.9 0.0
20/12:30pm 31.0 33.8 24.9 70 4.3 WSW 19 22 10 12 1008.3 1008.2 0.0
20/12:00pm 30.8 34.2 24.7 70 4.3 WSW 15 19 8 10 1008.7 1008.6 0.0
20/11:30am 30.7 33.8 24.1 68 4.6 WSW 15 17 8 9 1009.2 1009.1 0.0
20/11:00am 30.4 33.6 24.3 70 4.3 WSW 15 19 8 10 1009.4 1009.3 0.0
20/10:30am 30.4 34.0 24.3 70 4.3 WSW 13 15 7 8 1009.7 1009.6 0.0
20/10:00am 30.2 33.9 24.6 72 3.9 WSW 13 17 7 9 1010.0 1009.9 0.0
20/09:30am 30.1 33.8 25.2 75 3.5 SW 15 19 8 10 1010.2 1010.1 0.0
20/09:00am 29.4 33.2 24.7 76 3.3 SW 13 17 7 9 1010.1 1010.0 0.0
20/08:30am 29.2 33.0 24.7 77 3.1 SW 13 17 7 9 1010.1 1010.0 0.0
20/08:00am 29.0 33.2 24.8 78 2.9 WSW 11 15 6 8 1010.3 1010.2 0.0
20/07:30am 28.6 32.2 23.7 75 3.4 WSW 11 15 6 8 1010.3 1010.2 0.0
20/07:00am 28.0 31.9 24.2 80 2.6 WSW 11 15 6 8 1010.1 1010.0 0.0
20/06:30am 27.0 31.6 24.8 88 1.5 W 9 11 5 6 1009.9 1009.8 0.0
20/06:00am 26.2 30.5 24.2 89 1.4 WNW 9 11 5 6 1009.7 1009.6 0.0
20/05:30am 25.8 30.2 23.8 89 1.4 W 7 9 4 5 1009.3 1009.2 0.0
20/05:00am 25.7 30.2 23.7 89 1.4 SW 6 9 3 5 1009.0 1008.9 0.0
20/04:30am 26.0 32.0 24.2 90 1.2 CALM 0 2 0 1 1008.5 1008.4 0.0
20/04:00am 26.2 32.3 24.4 90 1.2 CALM 0 4 0 2 1008.2 1008.1 0.0
20/03:30am 26.4 30.9 24.6 90 1.2 S 9 13 5 7 1008.1 1008.0 0.0
20/03:00am 26.7 30.1 24.7 89 1.4 SSW 15 17 8 9 1008.0 1007.9 0.0
20/02:30am 26.9 30.1 24.9 89 1.4 SSW 17 19 9 10 1008.0 1007.9 0.0
20/02:00am 26.9 30.6 24.5 87 1.7 SSW 13 15 7 8 1008.2 1008.1 0.0
20/01:30am 27.0 30.7 24.5 86 1.7 SSW 13 17 7 9 1008.3 1008.2 0.0
20/01:00am 27.1 30.1 24.6 86 1.7 SW 17 19 9 10 1008.7 1008.6 0.0
20/12:30am 27.1 30.0 24.4 85 1.9 SW 17 20 9 11 1008.8 1008.7 0.0
20/12:00am 27.0 30.2 24.3 85 1.9 SW 15 19 8 10 1008.9 1008.8 0.0
 
Date/Time
WST
Temp
°C
App
Temp
°C
Dew
Point
°C
Rel
Hum
%
Delta-T
°C
Wind Press
QNH
hPa
Press
MSL
hPa
Rain since
9am
mm
Dir  Spd
km/h
Gust
km/h
Spd
kts
Gust
kts
19/11:30pm 27.1 30.2 24.2 84 2.0 SW 15 20 8 11 1009.2 1009.1 0.0
19/11:00pm 27.2 30.0 24.3 84 2.0 SW 17 20 9 11 1009.5 1009.4 0.0
19/10:30pm 27.4 30.2 25.0 87 1.7 SW 19 20 10 11 1009.8 1009.7 0.0
19/10:00pm 27.5 30.3 24.9 86 1.8 SW 19 24 10 13 1010.1 1010.0 0.0
19/09:30pm 27.8 29.8 25.2 86 1.8 WSW 24 28 13 15 1010.1 1010.0 0.0
19/09:00pm 27.9 29.5 25.1 85 2.0 WSW 26 30 14 16 1010.0 1009.9 0.0
19/08:30pm 27.9 29.5 25.1 85 2.0 W 26 28 14 15 1009.4 1009.3 0.0
19/08:00pm 28.0 29.6 25.2 85 2.0 WNW 26 30 14 16 1008.6 1008.5 0.0
19/07:30pm 28.2 30.0 25.4 85 2.0 WNW 26 32 14 17 1008.7 1008.6 0.0
19/07:00pm 28.3 30.5 25.5 85 2.0 WNW 24 30 13 16 1008.5 1008.4 0.0
19/06:30pm 28.2 30.7 25.4 85 2.0 WNW 22 26 12 14 1008.3 1008.2 0.0
19/06:00pm 28.4 30.3 25.6 85 2.0 WNW 26 32 14 17 1008.2 1008.1 0.0
19/05:30pm 28.6 30.7 25.4 83 2.3 WNW 24 28 13 15 1008.2 1008.1 0.0
19/05:00pm 28.7 30.9 25.5 83 2.3 WNW 24 30 13 16 1007.7 1007.6 0.0
19/04:30pm 28.8 31.2 25.8 84 2.1 W 24 28 13 15 1007.7 1007.6 0.0
19/04:00pm 29.0 31.5 26.0 84 2.1 WSW 24 30 13 16 1007.6 1007.5 0.0
19/03:30pm 28.9 30.4 25.5 82 2.4 WSW 28 32 15 17 1007.6 1007.5 0.0
19/03:00pm 29.0 30.5 25.6 82 2.4 WSW 28 33 15 18 1007.7 1007.6 0.0
19/02:30pm 29.0 30.0 25.4 81 2.5 WSW 30 37 16 20 1007.9 1007.8 0.0
19/02:00pm 29.3 30.9 25.7 81 2.6 W 28 35 15 19 1008.3 1008.2 0.0
19/01:30pm 29.2 31.2 25.8 82 2.4 W 26 32 14 17 1008.5 1008.4 0.0
19/01:00pm 28.9 30.1 25.7 83 2.3 WSW 30 35 16 19 1008.6 1008.5 0.0
19/12:30pm 28.3 29.2 25.3 84 2.1 WSW 30 33 16 18 1008.6 1008.5 0.0
19/12:00pm 28.3 31.1 25.3 84 2.1 WSW 20 22 11 12 1009.7 1009.6 0.0
19/11:30am 29.3 31.3 25.1 78 3.0 WSW 24 26 13 14 1010.5 1010.4 0.0
19/11:00am 30.0 32.2 25.5 77 3.2 WSW 24 30 13 16 1010.9 1010.8 0.0
19/10:30am 30.1 31.6 25.6 77 3.2 WSW 28 33 15 18 1010.7 1010.6 0.0
19/10:00am 30.5 31.8 25.8 76 3.3 WSW 30 33 16 18 1010.9 1010.8 0.0
19/09:30am 30.0 31.4 26.0 79 2.8 WSW 30 35 16 19 1011.3 1011.2 0.0
19/09:00am 29.6 30.2 25.4 78 3.0 WSW 32 37 17 20 1011.2 1011.1 0.0
19/08:30am 29.2 29.7 25.2 79 2.8 W 32 35 17 19 1010.8 1010.7 0.0
19/08:00am 28.6 29.7 25.0 81 2.5 W 28 33 15 18 1010.3 1010.2 0.0
19/07:30am 28.5 29.8 25.3 83 2.2 WSW 28 32 15 17 1010.5 1010.4 0.0
19/07:00am 28.3 29.1 25.1 83 2.2 W 30 35 16 19 1010.0 1009.9 0.0
19/06:30am 28.2 28.6 25.0 83 2.2 W 32 37 17 20 1009.4 1009.3 0.0
19/06:00am 28.0 28.3 24.8 83 2.2 W 32 37 17 20 1009.0 1008.9 0.0
19/05:30am 28.0 28.6 24.8 83 2.2 W 30 35 16 19 1008.9 1008.8 0.0
19/05:00am 28.2 29.0 25.0 83 2.2 W 30 33 16 18 1008.9 1008.8 0.0
19/04:30am 28.2 28.6 25.0 83 2.2 W 32 35 17 19 1008.7 1008.6 0.0
19/04:00am 28.1 28.8 24.9 83 2.2 W 30 35 16 19 1008.5 1008.4 0.0
19/03:30am 28.0 28.6 24.8 83 2.2 W 30 35 16 19 1008.4 1008.3 0.0
19/03:00am 28.1 29.2 24.9 83 2.2 W 28 33 15 18 1008.4 1008.3 0.0
19/02:30am 28.1 29.0 25.3 85 2.0 W 30 35 16 19 1008.1 1008.0 0.0
19/02:00am 27.9 30.1 25.5 87 1.7 WSW 24 30 13 16 1008.5 1008.4 0.0
19/01:30am 28.1 29.2 25.5 86 1.8 WSW 30 33 16 18 1008.9 1008.8 0.0
19/01:00am 28.1 29.6 25.5 86 1.8 W 28 33 15 18 1009.2 1009.1 0.0
19/12:30am 28.1 30.1 25.7 87 1.7 WSW 26 32 14 17 1009.7 1009.6 0.0
19/12:00am 28.3 29.4 25.5 85 2.0 W 30 35 16 19 1009.7 1009.6 0.0
 
Date/Time
WST
Temp
°C
App
Temp
°C
Dew
Point
°C
Rel
Hum
%
Delta-T
°C
Wind Press
QNH
hPa
Press
MSL
hPa
Rain since
9am
mm
Dir  Spd
km/h
Gust
km/h
Spd
kts
Gust
kts
18/11:30pm 28.3 29.2 25.3 84 2.1 W 30 39 16 21 1010.0 1009.9 0.0
18/11:00pm 28.2 28.8 25.4 85 2.0 WSW 32 35 17 19 1010.5 1010.4 0.0
18/10:30pm 28.2 30.1 25.6 86 1.8 WSW 26 32 14 17 1010.6 1010.5 0.0
18/10:00pm 28.0 28.6 25.4 86 1.8 WSW 32 37 17 20 1010.4 1010.3 0.0
18/09:30pm 28.3 28.1 24.1 78 2.9 SW 32 39 17 21 1010.6 1010.5 0.0
18/09:00pm 28.3 28.3 25.3 84 2.1 W 35 43 19 23 1010.4 1010.3 0.0
18/08:30pm 28.4 28.7 25.2 83 2.2 W 33 39 18 21 1010.2 1010.1 0.0

Other Formats:

Comma delimited format used in spreadsheet applications
http://www.bom.gov.au/fwo/IDW60801/IDW60801.94102.axf

JavaScript Object Notation format (JSON) in row-major order
http://www.bom.gov.au/fwo/IDW60801/IDW60801.94102.json